Brangus — WDB4516 — position and weather

sailwx.info

Track history (hours):
 
Tides and Currents Weather Stations Pressure Air Temp Water Temp Dewpoint Dewpoint Depression Visibility Wind Speed Wind Dir Waves Ship Positions

Brangus

Owner: Great Lakes Dredge & Dock Company, Oak Brook, IL. More information available from US FCC via Universal Licensing System and Coast Guard Vessel Documentation Center.

Last reported at 2017-Mar-12 02:23 UTC. Time now 2017-Mar-24 06:16 UTC.
Position N 39°22' W 075°28'.
Warning: this ship's position is 12 days out of date.

; draft 3 m.

MMSI: 366899270.

Date/timePositionNaut miles runAvg speedWind from/ knotsBaromVisibWave heightAir tempDewpointWater temp
2017-Mar-12 02:23N 39°22' W 075°28'2 2.4
2017-Mar-12 01:33N 39°23' W 075°29'2 2.3
2017-Mar-12 00:32N 39°25' W 075°31'3 3.3
2017-Mar-11 23:33N 39°28' W 075°34'5 5.0
2017-Mar-11 22:33N 39°33' W 075°33'5 5.3
2017-Mar-11 21:33N 39°38' W 075°35'5 5.4
2017-Mar-11 20:33N 39°42' W 075°31'  
2017-Mar-09 10:21N 39°46' W 075°28'4 4.6
2017-Mar-09 09:33N 39°42' W 075°30'4 3.9
2017-Mar-09 08:33N 39°39' W 075°33'3 3.0
2017-Mar-09 07:33N 39°36' W 075°34'3 3.3
2017-Mar-09 06:33N 39°33' W 075°32'3 2.9
2017-Mar-09 05:33N 39°30' W 075°33'3 3.1
2017-Mar-09 04:32N 39°27' W 075°34'  
Track history (hours):
 
Tides and Currents Weather Stations Pressure Air Temp Water Temp Dewpoint Dewpoint Depression Visibility Wind Speed Wind Dir Waves Ship Positions

Brangus

Owner: Great Lakes Dredge & Dock Company, Oak Brook, IL. More information available from US FCC via Universal Licensing System and Coast Guard Vessel Documentation Center.

Last reported at 2017-Mar-12 02:23 UTC. Time now 2017-Mar-24 06:16 UTC.
Position N 39°22' W 075°28'.
Warning: this ship's position is 12 days out of date.

; draft 3 m.

MMSI: 366899270.

Date/timePositionNaut miles runAvg speedWind from/ knotsBaromVisibWave heightAir tempDewpointWater temp
2017-Mar-12 02:23N 39°22' W 075°28'2 2.4
2017-Mar-12 01:33N 39°23' W 075°29'2 2.3
2017-Mar-12 00:32N 39°25' W 075°31'3 3.3
2017-Mar-11 23:33N 39°28' W 075°34'5 5.0
2017-Mar-11 22:33N 39°33' W 075°33'5 5.3
2017-Mar-11 21:33N 39°38' W 075°35'5 5.4
2017-Mar-11 20:33N 39°42' W 075°31'  
2017-Mar-09 10:21N 39°46' W 075°28'4 4.6
2017-Mar-09 09:33N 39°42' W 075°30'4 3.9
2017-Mar-09 08:33N 39°39' W 075°33'3 3.0
2017-Mar-09 07:33N 39°36' W 075°34'3 3.3
2017-Mar-09 06:33N 39°33' W 075°32'3 2.9
2017-Mar-09 05:33N 39°30' W 075°33'3 3.1
2017-Mar-09 04:32N 39°27' W 075°34'  

Dump ship's entire track history